createdAt,value
2024-01-27T00:04:13.690Z,99706.10
2024-01-27T00:09:16.856Z,99708.85
2024-01-27T00:14:19.955Z,99714.05
2024-01-27T00:19:23.572Z,99720.62
2024-01-27T00:24:26.967Z,99718.19
2024-01-27T00:29:30.105Z,99719.22
2024-01-27T00:34:33.199Z,99722.16
2024-01-27T00:39:36.286Z,99729.77
2024-01-27T00:44:39.590Z,99732.52
2024-01-27T00:49:43.090Z,99745.48
2024-01-27T00:54:46.158Z,99746.52
2024-01-27T00:59:49.435Z,99745.31
2024-01-27T01:04:52.536Z,99749.98
2024-01-27T01:09:55.647Z,99742.04
2024-01-27T01:14:58.966Z,99747.21
2024-01-27T01:20:02.265Z,99746.70
2024-01-27T01:25:06.013Z,99742.20
2024-01-27T01:30:10.753Z,99746.17
2024-01-27T01:35:14.287Z,99744.61
2024-01-27T01:40:17.386Z,99739.94
2024-01-27T01:45:21.822Z,99741.83
2024-01-27T01:50:25.130Z,99743.20
2024-01-27T01:55:28.236Z,99745.25
2024-01-27T02:00:31.753Z,99743.52
2024-01-27T02:05:35.840Z,99746.79
2024-01-27T02:10:39.021Z,99744.89
2024-01-27T02:15:42.152Z,99750.41
2024-01-27T02:20:45.686Z,99750.08
2024-01-27T02:25:49.040Z,99751.30
2024-01-27T02:30:52.256Z,99751.13
2024-01-27T02:35:55.419Z,99747.69
2024-01-27T02:40:58.681Z,99748.38
2024-01-27T02:46:01.677Z,99747.19
2024-01-27T02:51:05.500Z,99747.88
2024-01-27T02:56:11.476Z,99748.22
2024-01-27T03:01:14.541Z,99743.05
2024-01-27T03:06:17.754Z,99742.86
2024-01-27T03:11:21.012Z,99742.88
2024-01-27T03:16:24.131Z,99746.17
2024-01-27T03:21:27.318Z,99741.84
2024-01-27T03:26:31.018Z,99742.88
2024-01-27T03:31:37.895Z,99741.16
2024-01-27T03:36:41.716Z,99742.02
2024-01-27T03:41:44.892Z,99749.79
2024-01-27T03:46:49.434Z,99749.96
2024-01-27T03:51:52.540Z,99755.46
2024-01-27T03:56:56.140Z,99761.34
2024-01-27T04:01:59.314Z,99761.84
2024-01-27T04:07:03.381Z,99757.88
2024-01-27T04:12:07.173Z,99755.09
2024-01-27T04:17:10.242Z,99761.48
2024-01-27T04:22:13.753Z,99764.07
2024-01-27T04:27:16.993Z,99760.62
2024-01-27T04:32:20.225Z,99767.88
2024-01-27T04:37:23.287Z,99770.46
2024-01-27T04:42:26.690Z,99769.94
2024-01-27T04:47:29.934Z,99771.15
2024-01-27T04:52:33.038Z,99770.13
2024-01-27T04:57:36.302Z,99769.41
2024-01-27T05:02:43.282Z,99773.73
2024-01-27T05:07:46.453Z,99787.35
2024-01-27T05:12:49.582Z,99788.55
2024-01-27T05:17:52.940Z,99792.85
2024-01-27T05:22:56.195Z,99787.64
2024-01-27T05:27:59.416Z,99788.67
2024-01-27T05:33:02.812Z,99793.83
2024-01-27T05:38:06.042Z,99796.05
2024-01-27T05:43:09.455Z,99802.41
2024-01-27T05:48:12.862Z,99806.55
2024-01-27T05:53:16.175Z,99810.69
2024-01-27T05:58:22.362Z,99818.93
2024-01-27T06:03:26.037Z,99823.25
2024-01-27T06:08:29.182Z,99835.67
2024-01-27T06:13:34.263Z,99842.20
2024-01-27T06:18:38.133Z,99856.36
2024-01-27T06:23:41.388Z,99861.52
2024-01-27T06:28:44.508Z,99869.79
2024-01-27T06:33:47.787Z,99875.46
2024-01-27T06:38:51.080Z,99884.76
2024-01-27T06:43:54.218Z,99893.36
2024-01-27T06:48:57.377Z,99896.62
2024-01-27T06:54:00.661Z,99906.42
2024-01-27T06:59:03.763Z,99920.58
2024-01-27T07:04:07.146Z,99926.92
2024-01-27T07:09:10.624Z,99934.34
2024-01-27T07:14:13.802Z,99940.38
2024-01-27T07:19:17.815Z,99960.05
2024-01-27T07:24:21.370Z,99972.98
2024-01-27T07:29:24.564Z,99986.97
2024-01-27T07:34:27.623Z,99999.94
2024-01-27T07:39:30.916Z,100014.09
2024-01-27T07:44:33.988Z,100031.37
2024-01-27T07:49:37.208Z,100038.47
2024-01-27T07:54:41.531Z,100045.04
2024-01-27T07:59:44.748Z,100051.95
2024-01-27T08:04:47.885Z,100059.74
2024-01-27T08:09:50.965Z,100067.55
2024-01-27T08:14:55.239Z,100078.61
2024-01-27T08:19:58.325Z,100093.33
2024-01-27T08:25:01.642Z,100103.52
2024-01-27T08:30:05.791Z,100115.77
2024-01-27T08:35:11.448Z,100126.27
2024-01-27T08:40:15.972Z,100134.18
2024-01-27T08:45:19.444Z,100142.83
2024-01-27T08:50:23.223Z,100150.98
2024-01-27T08:55:26.358Z,100165.02
2024-01-27T09:00:29.956Z,100175.94
2024-01-27T09:05:33.267Z,100185.83
2024-01-27T09:10:36.476Z,100195.58
2024-01-27T09:15:40.016Z,100216.38
2024-01-27T09:20:43.720Z,100224.35
2024-01-27T09:25:46.946Z,100237.19
2024-01-27T09:30:50.470Z,100253.48
2024-01-27T09:35:53.716Z,100267.64
2024-01-27T09:40:57.387Z,100274.70
2024-01-27T09:46:00.744Z,100287.83
2024-01-27T09:51:06.375Z,100297.72
2024-01-27T09:56:10.500Z,100310.91
2024-01-27T10:01:13.568Z,100321.20
2024-01-27T10:06:16.991Z,100336.53
2024-01-27T10:11:22.282Z,100339.54
2024-01-27T10:16:25.375Z,100354.58
2024-01-27T10:21:28.790Z,100362.33
2024-01-27T10:26:33.419Z,100371.23
2024-01-27T10:31:39.321Z,100383.22
2024-01-27T10:36:46.783Z,100393.15
2024-01-27T10:41:51.078Z,100402.79
2024-01-27T10:46:55.521Z,100415.21
2024-01-27T10:52:02.804Z,100434.75
2024-01-27T10:57:07.531Z,100446.75
2024-01-27T11:02:14.279Z,100452.17
2024-01-27T11:07:20.568Z,100464.79
2024-01-27T11:12:25.468Z,100472.88
2024-01-27T11:17:28.758Z,100488.82
2024-01-27T11:22:34.996Z,100497.65
2024-01-27T11:27:38.343Z,100510.67
2024-01-27T11:32:42.377Z,100517.87
2024-01-27T11:37:46.101Z,100526.90
2024-01-27T11:42:57.054Z,100538.67
2024-01-27T11:48:02.313Z,100550.48
2024-01-27T11:53:11.049Z,100560.77
2024-01-27T11:58:14.278Z,100571.01
2024-01-27T12:03:17.827Z,100590.74
2024-01-27T12:08:21.204Z,100594.04
2024-01-27T12:13:24.511Z,100604.16
2024-01-27T12:18:28.985Z,100614.73
2024-01-27T12:23:32.161Z,100629.86
2024-01-27T12:28:39.195Z,100644.02
2024-01-27T12:33:50.360Z,100658.34
2024-01-27T12:39:01.983Z,100661.58
2024-01-27T12:44:06.825Z,100677.98
2024-01-27T12:49:10.488Z,100683.70
2024-01-27T12:54:13.781Z,100692.16
2024-01-27T12:59:16.959Z,100697.54
2024-01-27T13:04:20.175Z,100712.90
2024-01-27T13:09:23.375Z,100722.30
2024-01-27T13:14:26.603Z,100723.45
2024-01-27T13:19:30.243Z,100742.20
2024-01-27T13:24:34.032Z,100752.93
2024-01-27T13:29:37.171Z,100756.55
2024-01-27T13:34:40.499Z,100770.55
2024-01-27T13:39:43.721Z,100777.23
2024-01-27T13:44:47.742Z,100789.08
2024-01-27T13:49:51.364Z,100799.36
2024-01-27T13:54:54.672Z,100817.30
2024-01-27T13:59:58.199Z,100816.02
2024-01-27T14:05:01.322Z,100820.05
2024-01-27T14:10:05.677Z,100833.56
2024-01-27T14:15:09.944Z,100842.18
2024-01-27T14:20:13.729Z,100850.63
2024-01-27T14:25:17.190Z,100854.55
2024-01-27T14:30:20.436Z,100861.11
2024-01-27T14:35:23.827Z,100869.89
2024-01-27T14:40:27.136Z,100880.75
2024-01-27T14:45:31.635Z,100907.45
2024-01-27T14:50:34.956Z,100911.60
2024-01-27T14:55:38.714Z,100918.14
2024-01-27T15:00:42.141Z,100924.13
2024-01-27T15:05:45.692Z,100941.09
2024-01-27T15:10:49.008Z,100961.45
2024-01-27T15:15:52.187Z,100968.20
2024-01-27T15:20:55.357Z,100979.23
2024-01-27T15:25:58.603Z,100981.95
2024-01-27T15:31:02.019Z,100993.86
2024-01-27T15:36:05.645Z,101009.38
2024-01-27T15:41:09.770Z,101020.23
2024-01-27T15:46:13.011Z,101028.69
2024-01-27T15:51:16.642Z,101044.40
2024-01-27T15:56:19.819Z,101046.27
2024-01-27T16:01:23.158Z,101055.38
2024-01-27T16:06:26.499Z,101063.85
2024-01-27T16:11:29.752Z,101078.36
2024-01-27T16:16:32.862Z,101093.39
2024-01-27T16:21:36.005Z,101098.41
2024-01-27T16:26:39.175Z,101107.41
2024-01-27T16:31:42.296Z,101115.75
2024-01-27T16:36:46.325Z,101130.95
2024-01-27T16:41:49.449Z,101144.69
2024-01-27T16:46:52.653Z,101158.05
2024-01-27T16:51:55.858Z,101166.23
2024-01-27T16:56:59.046Z,101177.39
2024-01-27T17:02:02.387Z,101185.58
2024-01-27T17:07:05.490Z,101188.45
2024-01-27T17:12:12.008Z,101190.64
2024-01-27T17:17:15.192Z,101199.52
2024-01-27T17:22:18.507Z,101208.02
2024-01-27T17:27:21.740Z,101212.89
2024-01-27T17:32:25.058Z,101214.84
2024-01-27T17:37:28.447Z,101219.70
2024-01-27T17:42:31.585Z,101226.28
2024-01-27T17:47:39.218Z,101234.44
2024-01-27T17:52:42.390Z,101238.77
2024-01-27T17:57:45.820Z,101248.79
2024-01-27T18:02:49.414Z,101257.95
2024-01-27T18:07:52.528Z,101258.15
2024-01-27T18:12:55.792Z,101268.35
2024-01-27T18:17:59.300Z,101273.17
2024-01-27T18:23:02.876Z,101282.98
2024-01-27T18:28:06.564Z,101292.13
2024-01-27T18:33:09.842Z,101298.20
2024-01-27T18:38:13.239Z,101307.75
2024-01-27T18:43:16.437Z,101316.93
2024-01-27T18:48:21.171Z,101323.48
2024-01-27T18:53:24.443Z,101332.63
2024-01-27T18:58:27.610Z,101334.50
2024-01-27T19:03:31.019Z,101343.95
2024-01-27T19:08:34.247Z,101349.26
2024-01-27T19:13:37.357Z,101359.21
2024-01-27T19:18:41.090Z,101368.43
2024-01-27T19:23:44.390Z,101378.02
2024-01-27T19:28:47.807Z,101388.09
2024-01-27T19:33:51.088Z,101397.23
2024-01-27T19:38:54.629Z,101404.41
2024-01-27T19:43:57.926Z,101410.05
2024-01-27T19:49:02.677Z,101414.81
2024-01-27T19:54:08.566Z,101422.73
2024-01-27T19:59:13.982Z,101421.77
2024-01-27T20:04:18.129Z,101431.58
2024-01-27T20:09:28.200Z,101431.59
2024-01-27T20:14:31.553Z,101437.70
2024-01-27T20:19:34.931Z,101442.27
2024-01-27T20:24:38.468Z,101448.58
2024-01-27T20:29:41.708Z,101448.88
2024-01-27T20:34:47.906Z,101453.94
2024-01-27T20:39:51.280Z,101462.23
2024-01-27T20:44:56.925Z,101468.50
2024-01-27T20:50:04.443Z,101483.23
2024-01-27T20:55:09.777Z,101487.14
2024-01-27T21:00:13.483Z,101492.11
2024-01-27T21:05:16.571Z,101501.13
2024-01-27T21:10:19.728Z,101500.85
2024-01-27T21:15:22.861Z,101513.62
2024-01-27T21:20:25.995Z,101518.27
2024-01-27T21:25:29.215Z,101518.79
2024-01-27T21:30:32.792Z,101519.67
2024-01-27T21:35:36.030Z,101522.98
2024-01-27T21:40:42.821Z,101526.11
2024-01-27T21:45:52.996Z,101535.08
2024-01-27T21:50:59.990Z,101540.08
2024-01-27T21:56:04.340Z,101530.05
2024-01-27T22:01:08.030Z,101527.25
2024-01-27T22:06:11.489Z,101524.83
2024-01-27T22:11:14.691Z,101520.72
2024-01-27T22:16:17.902Z,101526.80
2024-01-27T22:21:21.047Z,101534.20
2024-01-27T22:26:24.748Z,101537.16
2024-01-27T22:31:32.040Z,101542.35
2024-01-27T22:36:36.061Z,101552.52
2024-01-27T22:41:41.249Z,101561.84
2024-01-27T22:46:44.553Z,101569.79
2024-01-27T22:51:50.166Z,101574.67
2024-01-27T22:56:53.543Z,101583.69
2024-01-27T23:01:56.714Z,101588.22
2024-01-27T23:07:00.078Z,101588.96
2024-01-27T23:12:03.225Z,101592.60
2024-01-27T23:17:06.268Z,101594.99
2024-01-27T23:22:09.276Z,101592.55
2024-01-27T23:27:12.308Z,101592.66
2024-01-27T23:32:15.399Z,101598.31
2024-01-27T23:37:18.414Z,101600.00
2024-01-27T23:42:21.647Z,101598.09
2024-01-27T23:47:24.830Z,101597.52
2024-01-27T23:52:28.970Z,101603.67
2024-01-27T23:57:32.640Z,101601.59
